Time;durP1;ratioP1;P1;durP2;ratioP2;P2;SDS_P1;SDS_P2;PMS_P1;PMS_P2;Temp;Humidity;BMP_temperature;BMP_pressure;BME280_temperature;BME280_humidity;BME280_pressure;Samples;Min_cycle;Max_cycle;Signal;HPM_P1;HPM_P2
2023/07/25 00:00:44;;;;;;;4.50;2.80;;;;;;;17.60;100.00;97250.94;4138312;28;20643;-82
2023/07/25 00:02:49;;;;;;;4.13;3.03;;;;;;;17.59;100.00;97251.09;4116715;28;20775;-81
2023/07/25 00:04:52;;;;;;;3.93;3.10;;;;;;;17.58;100.00;97245.00;4132126;28;20699;-81
2023/07/25 00:06:55;;;;;;;8.90;3.50;;;;;;;17.57;100.00;97250.44;4124127;28;20677;-81
2023/07/25 00:08:58;;;;;;;4.33;3.37;;;;;;;17.54;100.00;97251.59;4135965;28;21035;-81
2023/07/25 00:11:01;;;;;;;7.40;3.80;;;;;;;17.51;100.00;97238.78;4112300;28;20671;-81
2023/07/25 00:13:04;;;;;;;5.70;3.80;;;;;;;17.51;100.00;97238.78;4117503;28;21247;-81
2023/07/25 00:15:07;;;;;;;8.70;3.20;;;;;;;17.48;100.00;97228.56;4133327;28;21844;-81
2023/07/25 00:17:10;;;;;;;7.80;3.10;;;;;;;17.46;100.00;97234.19;4133768;28;20655;-81
2023/07/25 00:19:15;;;;;;;7.30;2.77;;;;;;;17.43;100.00;97235.31;4128727;28;21057;-81
2023/07/25 00:21:17;;;;;;;4.57;2.73;;;;;;;17.42;100.00;97228.41;4119831;28;21020;-81
2023/07/25 00:23:20;;;;;;;4.70;3.30;;;;;;;17.41;100.00;97236.47;4123327;28;20635;-81
2023/07/25 00:25:24;;;;;;;6.23;3.20;;;;;;;17.41;100.00;97231.19;4133826;28;21065;-81
2023/07/25 00:27:27;;;;;;;3.80;3.20;;;;;;;17.43;100.00;97234.50;4114666;28;20700;-81
2023/07/25 00:29:30;;;;;;;5.63;3.40;;;;;;;17.41;100.00;97229.41;4121096;28;20648;-81
2023/07/25 00:31:33;;;;;;;5.03;3.17;;;;;;;17.41;100.00;97236.47;4122286;28;20734;-81
2023/07/25 00:33:37;;;;;;;3.80;3.20;;;;;;;17.40;100.00;97234.84;4136489;28;21047;-81
2023/07/25 00:35:41;;;;;;;5.20;3.77;;;;;;;17.39;100.00;97234.00;4119792;28;20750;-81
2023/07/25 00:37:44;;;;;;;5.20;2.93;;;;;;;17.39;100.00;97230.56;4112433;28;20976;-81
2023/07/25 00:39:47;;;;;;;5.17;3.70;;;;;;;17.39;100.00;97223.44;4119730;28;20648;-81
2023/07/25 00:41:50;;;;;;;4.87;4.33;;;;;;;17.37;100.00;97217.53;4132384;28;20656;-81
2023/07/25 00:43:53;;;;;;;7.60;4.10;;;;;;;17.39;100.00;97212.91;4120313;28;21278;-81
2023/07/25 00:45:56;;;;;;;5.80;3.33;;;;;;;17.38;100.00;97203.38;4107414;28;20740;-81
2023/07/25 00:47:59;;;;;;;3.97;3.30;;;;;;;17.38;100.00;97208.66;4118645;28;20748;-81
2023/07/25 00:50:02;;;;;;;4.00;3.10;;;;;;;17.39;100.00;97201.56;4135182;28;20671;-81
2023/07/25 00:52:07;;;;;;;4.30;3.50;;;;;;;17.37;100.00;97204.34;4117714;28;21042;-82
2023/07/25 00:54:09;;;;;;;5.60;3.27;;;;;;;17.36;100.00;97200.06;4118004;28;21264;-81
2023/07/25 00:56:13;;;;;;;4.17;3.23;;;;;;;17.36;100.00;97202.69;4134709;28;21380;-81
2023/07/25 00:58:17;;;;;;;4.37;3.50;;;;;;;17.36;100.00;97197.41;4120426;28;20652;-81
2023/07/25 01:00:20;;;;;;;4.80;2.90;;;;;;;17.34;100.00;97203.88;4131234;28;20662;-81
2023/07/25 01:02:24;;;;;;;4.60;3.30;;;;;;;17.31;100.00;97199.75;4105242;28;21069;-81
2023/07/25 01:04:27;;;;;;;5.77;4.10;;;;;;;17.30;100.00;97198.09;4107217;28;20677;-81
2023/07/25 01:06:30;;;;;;;4.60;3.33;;;;;;;17.30;100.00;97197.28;4120622;28;20660;-81
2023/07/25 01:08:47;;;;;;;4.90;3.13;;;;;;;17.30;100.00;97192.00;4118062;28;20714;-81
2023/07/25 01:10:50;;;;;;;4.23;3.20;;;;;;;17.28;100.00;97200.09;4123523;28;20702;-81
2023/07/25 01:12:53;;;;;;;3.10;2.60;;;;;;;17.30;100.00;97190.19;4123644;28;20663;-81
2023/07/25 01:14:56;;;;;;;5.40;3.23;;;;;;;17.30;100.00;97192.81;4126268;28;20663;-81
2023/07/25 01:16:59;;;;;;;4.20;3.10;;;;;;;17.30;100.00;97195.47;4106268;28;20718;-81
2023/07/25 01:19:02;;;;;;;3.33;2.87;;;;;;;17.30;100.00;97187.53;4124936;28;21280;-81
2023/07/25 01:21:05;;;;;;;4.20;3.27;;;;;;;17.30;100.00;97192.00;4131850;28;20755;-81
2023/07/25 01:23:10;;;;;;;4.37;3.00;;;;;;;17.28;100.00;97189.53;4135147;28;20651;-81
2023/07/25 01:25:15;;;;;;;4.10;3.27;;;;;;;17.29;100.00;97187.72;4117366;28;21085;-81
2023/07/25 01:27:18;;;;;;;5.53;3.10;;;;;;;17.28;100.00;97189.53;4121228;28;20662;-81
2023/07/25 01:29:21;;;;;;;3.70;2.80;;;;;;;17.27;100.00;97187.06;4110553;28;20654;-81
2023/07/25 01:31:24;;;;;;;4.40;3.30;;;;;;;17.27;100.00;97187.06;4105334;28;20653;-81
2023/07/25 01:33:27;;;;;;;4.30;3.50;;;;;;;17.25;100.00;97181.16;4103139;28;20811;-81
2023/07/25 01:35:30;;;;;;;5.40;3.93;;;;;;;17.25;100.00;97189.06;4118267;28;20750;-81
2023/07/25 01:37:33;;;;;;;4.37;3.77;;;;;;;17.25;100.00;97184.59;4106376;28;20749;-81
2023/07/25 01:39:35;;;;;;;3.80;3.40;;;;;;;17.25;100.00;97173.25;4118679;28;20681;-81
2023/07/25 01:41:41;;;;;;;4.53;3.23;;;;;;;17.24;100.00;97182.13;4114817;28;21239;-81
2023/07/25 01:43:44;;;;;;;5.57;3.33;;;;;;;17.24;100.00;97175.03;4105509;28;20669;-81
2023/07/25 01:45:47;;;;;;;4.30;3.20;;;;;;;17.24;100.00;97187.41;4103442;28;20686;-81
2023/07/25 01:47:50;;;;;;;4.80;3.23;;;;;;;17.24;100.00;97174.22;4135856;28;21572;-81
2023/07/25 01:49:53;;;;;;;4.90;3.57;;;;;;;17.21;100.00;97162.19;4106395;28;21140;-80
2023/07/25 01:51:56;;;;;;;4.50;2.90;;;;;;;17.21;100.00;97154.28;4120850;28;21138;-80
2023/07/25 01:53:59;;;;;;;4.30;3.20;;;;;;;17.20;100.00;97144.75;4106991;28;20659;-80
2023/07/25 01:56:02;;;;;;;4.40;2.73;;;;;;;17.16;100.00;97138.13;4130740;28;20748;-80
2023/07/25 01:58:06;;;;;;;5.00;3.17;;;;;;;17.12;100.00;97151.81;4119455;28;21071;-80
2023/07/25 02:00:10;;;;;;;4.77;3.20;;;;;;;17.11;100.00;97142.28;4117461;28;20740;-80
2023/07/25 02:02:16;;;;;;;3.30;2.73;;;;;;;17.10;100.00;97140.63;4128295;28;20646;-80
2023/07/25 02:04:19;;;;;;;4.50;3.20;;;;;;;17.10;100.00;97138.81;4108042;28;20659;-80
2023/07/25 02:06:23;;;;;;;3.60;3.00;;;;;;;17.09;100.00;97125.78;4117508;28;20748;-80
2023/07/25 02:08:26;;;;;;;5.47;2.83;;;;;;;17.04;100.00;97117.56;4119800;28;21049;-80
2023/07/25 02:10:29;;;;;;;4.50;2.90;;;;;;;16.99;100.00;97115.44;4118114;28;20728;-80
2023/07/25 02:12:32;;;;;;;3.40;2.83;;;;;;;16.98;100.00;97111.16;4115536;28;20648;-80
2023/07/25 02:14:37;;;;;;;4.00;2.80;;;;;;;16.99;100.00;97125.97;4098013;28;20665;-80
2023/07/25 02:16:41;;;;;;;6.57;3.37;;;;;;;17.01;100.00;97128.44;4118630;28;21058;-80
2023/07/25 02:18:45;;;;;;;4.87;3.27;;;;;;;17.02;100.00;97119.56;4118075;28;20644;-80
2023/07/25 02:20:48;;;;;;;4.63;3.37;;;;;;;17.01;100.00;97115.28;4106434;28;20653;-80
2023/07/25 02:22:51;;;;;;;4.60;3.57;;;;;;;17.03;100.00;97105.38;4120937;28;20656;-80
2023/07/25 02:24:54;;;;;;;4.10;3.00;;;;;;;17.03;100.00;97100.13;4102555;28;20650;-80
2023/07/25 02:26:57;;;;;;;5.40;3.63;;;;;;;17.01;100.00;97091.56;4098897;28;20694;-80
2023/07/25 02:29:00;;;;;;;4.77;3.33;;;;;;;16.99;100.00;97099.63;4118920;28;20759;-80
2023/07/25 02:31:05;;;;;;;3.47;3.00;;;;;;;17.00;100.00;97108.34;4121912;28;20730;-80
2023/07/25 02:33:08;;;;;;;5.90;3.33;;;;;;;16.99;100.00;97104.09;4123041;28;20650;-80
2023/07/25 02:35:11;;;;;;;5.67;3.13;;;;;;;16.99;100.00;97099.63;4104362;28;20672;-80
2023/07/25 02:37:15;;;;;;;4.80;3.40;;;;;;;16.99;100.00;97097.00;4110163;28;21009;-80
2023/07/25 02:39:21;;;;;;;3.80;3.23;;;;;;;17.01;100.00;97096.84;4136285;28;20848;-80
2023/07/25 02:41:24;;;;;;;3.87;3.13;;;;;;;17.01;100.00;97081.03;4118515;28;20639;-80
2023/07/25 02:43:27;;;;;;;4.47;3.23;;;;;;;17.00;100.00;97071.47;4123463;28;20708;-80
2023/07/25 02:45:30;;;;;;;4.03;2.93;;;;;;;16.98;100.00;97073.47;4108707;28;20664;-80
2023/07/25 02:47:34;;;;;;;10.00;3.37;;;;;;;16.97;100.00;97084.97;4108007;28;21277;-80
2023/07/25 02:49:38;;;;;;;4.20;3.07;;;;;;;16.97;100.00;97074.44;4118718;28;20694;-80
2023/07/25 02:51:41;;;;;;;4.80;3.33;;;;;;;16.97;100.00;97071.00;4116862;28;21140;-80
2023/07/25 02:53:45;;;;;;;5.50;3.03;;;;;;;16.96;100.00;97070.19;4117013;28;20638;-80
2023/07/25 02:55:48;;;;;;;6.73;3.50;;;;;;;16.96;100.00;97078.09;4107253;28;20680;-80
2023/07/25 02:57:51;;;;;;;5.90;3.87;;;;;;;16.95;100.00;97076.44;4115648;28;20652;-80
2023/07/25 02:59:55;;;;;;;6.47;3.20;;;;;;;16.96;100.00;97083.34;4103537;28;21030;-80
2023/07/25 03:01:58;;;;;;;4.50;3.10;;;;;;;16.97;100.00;97082.34;4126812;28;20652;-80
2023/07/25 03:04:02;;;;;;;5.57;3.00;;;;;;;16.98;100.00;97084.00;4118533;28;20670;-80
2023/07/25 03:06:05;;;;;;;3.77;3.03;;;;;;;16.98;100.00;97072.66;4098862;28;21252;-80
2023/07/25 03:08:09;;;;;;;3.87;3.23;;;;;;;16.99;100.00;97070.66;4119726;28;20676;-80
2023/07/25 03:10:12;;;;;;;4.80;3.33;;;;;;;17.00;100.00;97064.41;4129952;28;21325;-80
2023/07/25 03:12:15;;;;;;;4.73;3.07;;;;;;;17.02;100.00;97061.59;4106124;28;20666;-80
2023/07/25 03:14:18;;;;;;;5.03;3.10;;;;;;;17.04;100.00;97056.97;4121099;28;21897;-80
2023/07/25 03:16:21;;;;;;;5.07;3.33;;;;;;;17.05;100.00;97056.00;4139311;28;20687;-80
2023/07/25 03:18:24;;;;;;;4.47;3.30;;;;;;;17.05;100.00;97046.28;4126832;28;20681;-80
2023/07/25 03:20:29;;;;;;;4.27;3.13;;;;;;;17.06;100.00;97034.75;4117953;28;20658;-80
2023/07/25 03:22:32;;;;;;;5.17;3.07;;;;;;;17.08;100.00;97042.47;4134637;28;20666;-80
2023/07/25 03:24:35;;;;;;;3.53;3.00;;;;;;;17.08;100.00;97045.13;4117604;28;20815;-80
2023/07/25 03:26:38;;;;;;;3.43;2.40;;;;;;;17.08;100.00;97053.84;4104994;28;20635;-80
2023/07/25 03:28:41;;;;;;;4.77;3.17;;;;;;;17.08;100.00;97066.19;4106715;28;20638;-80
2023/07/25 03:30:45;;;;;;;5.03;3.50;;;;;;;17.10;100.00;97082.66;4135622;28;20662;-80
2023/07/25 03:32:48;;;;;;;4.57;3.20;;;;;;;17.10;100.00;97080.81;4106788;28;20663;-80
2023/07/25 03:34:51;;;;;;;6.10;3.33;;;;;;;17.11;100.00;97079.03;4121208;28;21114;-80
2023/07/25 03:36:56;;;;;;;3.73;2.80;;;;;;;17.13;100.00;97069.13;4128123;28;20649;-80
2023/07/25 03:38:59;;;;;;;4.13;2.90;;;;;;;17.10;100.00;97067.66;4124857;28;20669;-80
2023/07/25 03:41:02;;;;;;;3.83;2.80;;;;;;;17.11;100.00;97081.66;4124554;28;20652;-80
2023/07/25 03:43:05;;;;;;;3.70;2.60;;;;;;;17.12;100.00;97091.19;4135044;28;20748;-80
2023/07/25 03:45:08;;;;;;;3.40;2.73;;;;;;;17.14;100.00;97102.41;4103094;28;20661;-80
2023/07/25 03:47:11;;;;;;;4.30;2.80;;;;;;;17.13;100.00;97111.31;4100500;28;21246;-80
2023/07/25 03:49:15;;;;;;;3.90;2.83;;;;;;;17.15;100.00;97114.56;4107863;28;20656;-80
2023/07/25 03:51:18;;;;;;;5.67;3.10;;;;;;;17.17;100.00;97109.94;4119701;28;20661;-92
2023/07/25 03:53:23;;;;;;;4.10;2.90;;;;;;;17.19;100.00;97111.44;4125356;28;20640;-91
2023/07/25 03:55:27;;;;;;;4.20;3.03;;;;;;;17.23;100.00;97109.31;4114602;28;20658;-91
2023/07/25 03:57:30;;;;;;;3.97;2.87;;;;;;;17.25;100.00;97107.34;4121761;28;20675;-91
2023/07/25 03:59:33;;;;;;;4.00;2.83;;;;;;;17.20;100.00;97096.44;4123501;28;21072;-93
2023/07/25 04:01:36;;;;;;;5.43;3.17;;;;;;;17.17;100.00;97088.88;4128550;28;20694;-91
2023/07/25 04:03:38;;;;;;;4.07;3.40;;;;;;;17.15;100.00;97089.03;4132012;28;20659;-92
2023/07/25 04:05:41;;;;;;;3.70;2.87;;;;;;;17.17;100.00;97102.03;4115453;28;21156;-91
2023/07/25 04:07:45;;;;;;;3.87;2.87;;;;;;;17.14;100.00;97097.97;4121347;28;20643;-92
2023/07/25 04:09:49;;;;;;;4.10;2.87;;;;;;;17.13;100.00;97106.03;4124368;28;20754;-91
2023/07/25 04:11:51;;;;;;;3.87;2.70;;;;;;;17.14;100.00;97107.69;4132902;28;20671;-91
2023/07/25 04:13:54;;;;;;;3.70;3.10;;;;;;;17.16;100.00;97100.44;4117563;28;20746;-93
2023/07/25 04:15:58;;;;;;;3.93;3.13;;;;;;;17.15;100.00;97098.78;4119039;28;21373;-92
2023/07/25 04:18:01;;;;;;;4.57;3.00;;;;;;;17.18;100.00;97096.59;4115597;28;20659;-92
2023/07/25 04:20:05;;;;;;;4.40;3.40;;;;;;;17.14;100.00;97094.50;4118911;28;20655;-92
2023/07/25 04:22:08;;;;;;;5.60;3.60;;;;;;;17.14;100.00;97105.06;4108143;28;20652;-93
2023/07/25 04:24:12;;;;;;;4.70;2.90;;;;;;;17.11;100.00;97108.03;4124001;28;20658;-94
2023/07/25 04:26:16;;;;;;;5.47;3.37;;;;;;;17.11;100.00;97103.56;4135392;28;20639;-93
2023/07/25 04:28:19;;;;;;;4.70;3.23;;;;;;;17.12;100.00;97109.66;4118621;28;20744;-93
2023/07/25 04:30:22;;;;;;;3.63;3.00;;;;;;;17.14;100.00;97110.31;4118369;28;22163;-92
2023/07/25 04:32:25;;;;;;;7.30;3.10;;;;;;;17.18;100.00;97122.16;4124435;28;20673;-90
2023/07/25 04:34:28;;;;;;;4.00;2.77;;;;;;;17.18;100.00;97119.50;4111106;28;20643;-91
2023/07/25 04:36:32;;;;;;;4.50;3.07;;;;;;;17.21;100.00;97124.47;4118771;28;20659;-90
2023/07/25 04:38:35;;;;;;;4.37;2.70;;;;;;;17.24;100.00;97129.41;4118950;28;21055;-91
2023/07/25 04:40:37;;;;;;;4.80;3.60;;;;;;;17.28;100.00;97120.19;4121788;28;20679;-91
2023/07/25 04:42:41;;;;;;;4.37;3.07;;;;;;;17.33;100.00;97131.03;4123599;28;20704;-91
2023/07/25 04:44:45;;;;;;;4.17;3.27;;;;;;;17.37;100.00;97135.00;4109866;28;20720;-91
2023/07/25 04:46:48;;;;;;;4.60;3.00;;;;;;;17.41;100.00;97133.66;4135203;28;20670;-91
2023/07/25 04:48:51;;;;;;;3.60;3.10;;;;;;;17.46;100.00;97128.72;4110004;28;20686;-91
2023/07/25 04:50:54;;;;;;;4.93;3.47;;;;;;;17.47;100.00;97131.97;4122552;28;20640;-91
2023/07/25 04:52:56;;;;;;;5.43;2.77;;;;;;;17.46;100.00;97128.72;4118043;28;20788;-91
2023/07/25 04:54:59;;;;;;;4.97;3.70;;;;;;;17.45;100.00;97133.13;4136454;28;21082;-91
2023/07/25 04:57:03;;;;;;;4.13;3.13;;;;;;;17.48;100.00;97124.88;4119569;28;21095;-91
2023/07/25 04:59:07;;;;;;;5.70;2.90;;;;;;;17.55;100.00;97117.94;4120059;28;20664;-90
2023/07/25 05:01:12;;;;;;;4.17;3.17;;;;;;;17.62;100.00;97125.00;4121074;28;20644;-91
2023/07/25 05:03:15;;;;;;;5.30;3.50;;;;;;;17.69;100.00;97123.31;4117498;28;20643;-91
2023/07/25 05:05:18;;;;;;;4.30;3.23;;;;;;;17.75;100.00;97117.34;4134924;28;20651;-90
2023/07/25 05:07:21;;;;;;;4.20;2.80;;;;;;;17.80;100.00;97111.56;4118810;28;21043;-91
2023/07/25 05:09:25;;;;;;;4.60;3.40;;;;;;;17.83;100.00;97108.56;4131202;28;21012;-91
2023/07/25 05:11:28;;;;;;;6.13;5.30;;;;;;;17.87;100.00;97121.25;4135862;28;20683;-91
2023/07/25 05:13:31;;;;;;;5.70;3.30;;;;;;;17.89;100.00;97121.06;4131549;28;20644;-91
2023/07/25 05:15:37;;;;;;;3.83;3.20;;;;;;;17.89;100.00;97119.28;4136871;28;21227;-91
2023/07/25 05:17:40;;;;;;;4.77;3.30;;;;;;;17.92;100.00;97123.38;4128186;28;20748;-91
2023/07/25 05:19:44;;;;;;;4.43;3.23;;;;;;;17.94;100.00;97114.28;4133272;28;20665;-92
2023/07/25 05:21:47;;;;;;;3.87;3.00;;;;;;;17.97;100.00;97119.22;4117401;28;20668;-91
2023/07/25 05:23:50;;;;;;;3.80;3.07;;;;;;;17.97;100.00;97119.22;4138815;28;20651;-91
2023/07/25 05:25:53;;;;;;;4.37;3.97;;;;;;;17.98;100.00;97121.69;4113966;28;20665;-91
2023/07/25 05:27:56;;;;;;;9.60;4.00;;;;;;;17.99;100.00;97115.41;4103771;28;20724;-91
2023/07/25 05:29:58;;;;;;;6.23;4.03;;;;;;;18.02;100.00;97107.13;4117038;28;20640;-92
2023/07/25 05:32:03;;;;;;;4.30;3.30;;;;;;;18.04;100.00;97112.22;4116246;28;20662;-91
2023/07/25 05:34:06;;;;;;;6.10;3.47;;;;;;;18.05;100.00;97121.81;4110886;28;20660;-94
2023/07/25 05:36:08;;;;;;;3.63;3.03;;;;;;;18.05;100.00;97116.53;4134292;28;20678;-94
2023/07/25 05:38:11;;;;;;;4.77;3.37;;;;;;;18.06;100.00;97126.09;4133629;28;21139;-92
2023/07/25 05:40:14;;;;;;;5.07;3.13;;;;;;;18.05;100.00;97143.72;4134682;28;20683;-92
2023/07/25 05:42:16;;;;;;;4.83;3.63;;;;;;;18.03;100.00;97142.28;4133340;28;20642;-92
2023/07/25 05:44:19;;;;;;;4.73;3.63;;;;;;;18.00;100.00;97146.06;4135840;28;20744;-93
2023/07/25 05:46:23;;;;;;;5.43;3.30;;;;;;;17.97;100.00;97145.63;4118159;28;20682;-93
2023/07/25 05:48:27;;;;;;;4.90;3.90;;;;;;;17.92;100.00;97129.47;4103471;28;20649;-93
2023/07/25 05:50:30;;;;;;;5.00;3.60;;;;;;;17.88;100.00;97127.38;4125668;28;20639;-79
2023/07/25 05:52:33;;;;;;;7.00;3.67;;;;;;;17.84;100.00;97136.59;4116821;28;20668;-79
2023/07/25 05:54:36;;;;;;;5.27;3.90;;;;;;;17.84;100.00;97128.69;4105451;28;21043;-80
2023/07/25 05:56:39;;;;;;;5.27;3.70;;;;;;;17.81;100.00;97137.75;4121743;28;20801;-80
2023/07/25 05:58:42;;;;;;;4.60;3.53;;;;;;;17.79;100.00;97145.03;4121698;28;21218;-80
2023/07/25 06:00:45;;;;;;;4.30;3.30;;;;;;;17.79;100.00;97152.94;4106745;28;20660;-79
2023/07/25 06:02:49;;;;;;;6.70;4.10;;;;;;;17.78;100.00;97153.94;4112104;28;20677;-79
2023/07/25 06:04:53;;;;;;;5.40;3.60;;;;;;;17.73;100.00;97150.19;4123308;28;20661;-79
2023/07/25 06:06:57;;;;;;;5.60;4.00;;;;;;;17.72;100.00;97156.44;4099735;28;20652;-79
2023/07/25 06:09:01;;;;;;;6.00;4.10;;;;;;;17.71;100.00;97149.50;4117674;28;21314;-80
2023/07/25 06:11:04;;;;;;;6.40;3.90;;;;;;;17.73;100.00;97155.47;4110866;28;21092;-80
2023/07/25 06:13:07;;;;;;;4.77;3.60;;;;;;;17.76;100.00;97158.56;4107434;28;20723;-80
2023/07/25 06:15:11;;;;;;;5.10;3.70;;;;;;;17.78;100.00;97151.28;4112634;28;20673;-80
2023/07/25 06:17:14;;;;;;;6.00;3.90;;;;;;;17.76;100.00;97163.84;4131140;28;20676;-80
2023/07/25 06:19:17;;;;;;;5.30;4.20;;;;;;;17.78;100.00;97137.28;4136344;28;21215;-80
2023/07/25 06:21:22;;;;;;;5.10;3.33;;;;;;;17.78;100.00;97130.19;4108451;28;20648;-80
2023/07/25 06:23:25;;;;;;;7.27;4.70;;;;;;;17.77;100.00;97133.84;4112632;28;20645;-80
2023/07/25 06:25:28;;;;;;;7.03;3.93;;;;;;;17.79;100.00;97141.59;4119438;28;20689;-80
2023/07/25 06:27:31;;;;;;;4.60;3.60;;;;;;;17.76;100.00;97145.38;4100808;28;20661;-80
2023/07/25 06:29:35;;;;;;;7.20;3.57;;;;;;;17.80;100.00;97143.22;4133653;28;20707;-83
2023/07/25 06:31:40;;;;;;;5.60;3.87;;;;;;;17.83;100.00;97140.22;4107065;28;20649;-81
2023/07/25 06:33:43;;;;;;;6.20;3.60;;;;;;;17.88;100.00;97144.00;4121294;28;20703;-80
2023/07/25 06:35:47;;;;;;;5.90;4.03;;;;;;;17.91;100.00;97146.31;4126923;28;20660;-80
2023/07/25 06:37:51;;;;;;;4.97;3.87;;;;;;;17.89;100.00;97135.09;4106672;28;20656;-80
2023/07/25 06:39:55;;;;;;;5.13;3.37;;;;;;;17.89;100.00;97132.47;4122538;28;20698;-80
2023/07/25 06:41:58;;;;;;;6.63;4.27;;;;;;;17.92;100.00;97142.69;4121689;28;20642;-80
2023/07/25 06:44:04;;;;;;;5.97;4.10;;;;;;;17.94;100.00;97148.59;4108029;28;20644;-80
2023/07/25 06:46:07;;;;;;;6.37;4.30;;;;;;;17.98;100.00;97142.81;4122506;28;21491;-80
2023/07/25 06:48:11;;;;;;;7.70;3.67;;;;;;;17.99;100.00;97143.63;4127618;28;20655;-80
2023/07/25 06:50:14;;;;;;;4.60;3.60;;;;;;;18.04;100.00;97141.25;4109146;28;20847;-80
2023/07/25 06:52:17;;;;;;;6.37;4.17;;;;;;;18.05;100.00;97138.44;4107972;28;20635;-80
2023/07/25 06:54:22;;;;;;;4.77;3.60;;;;;;;18.13;100.00;97141.09;4107692;28;20657;-80
2023/07/25 06:56:25;;;;;;;3.90;3.13;;;;;;;18.20;100.00;97146.50;4121734;28;21305;-80
2023/07/25 06:58:31;;;;;;;4.60;3.60;;;;;;;18.20;100.00;97136.75;4119427;28;20649;-80
2023/07/25 07:00:39;;;;;;;4.93;4.10;;;;;;;18.26;100.00;97127.31;4107264;28;21103;-80
2023/07/25 07:02:42;;;;;;;5.90;3.83;;;;;;;18.29;100.00;97129.59;4104445;28;20655;-80
2023/07/25 07:04:46;;;;;;;5.37;3.63;;;;;;;18.33;100.00;97130.88;4122648;28;20663;-80
2023/07/25 07:06:49;;;;;;;5.47;3.70;;;;;;;18.33;100.00;97115.88;4108705;28;21093;-80
2023/07/25 07:08:52;;;;;;;4.40;3.53;;;;;;;18.36;100.00;97112.88;4106856;28;20662;-80
2023/07/25 07:10:57;;;;;;;5.53;3.30;;;;;;;18.39;100.00;97107.25;4103524;28;20650;-80
2023/07/25 07:12:59;;;;;;;7.77;3.63;;;;;;;18.41;100.00;97106.06;4121957;28;20646;-79
2023/07/25 07:15:03;;;;;;;8.20;3.70;;;;;;;18.45;100.00;97102.09;4133412;28;21057;-79
2023/07/25 07:17:07;;;;;;;4.53;3.60;;;;;;;18.48;100.00;97101.72;4115099;28;20676;-79
2023/07/25 07:19:11;;;;;;;6.10;4.43;;;;;;;18.53;100.00;97107.28;4118251;28;20725;-79
2023/07/25 07:21:14;;;;;;;4.13;3.27;;;;;;;18.62;100.00;97111.50;4102896;28;21458;-79
2023/07/25 07:23:17;;;;;;;6.53;3.30;;;;;;;18.69;100.00;97107.16;4118220;28;21254;-79
2023/07/25 07:25:21;;;;;;;5.30;3.37;;;;;;;18.78;100.00;97111.38;4123052;28;20700;-80
2023/07/25 07:27:27;;;;;;;5.37;3.83;;;;;;;18.86;100.00;97113.94;4099759;28;20702;-80
2023/07/25 07:29:30;;;;;;;5.17;3.50;;;;;;;18.90;100.00;97116.06;4123296;28;20686;-78
2023/07/25 07:31:33;;;;;;;4.17;3.30;;;;;;;18.96;100.00;97115.34;4103752;28;21044;-80
2023/07/25 07:33:37;;;;;;;4.30;3.30;;;;;;;18.95;100.00;97104.94;4120128;28;20667;-79
2023/07/25 07:35:40;;;;;;;4.70;2.93;;;;;;;18.97;100.00;97113.50;4110054;28;20653;-78
2023/07/25 07:37:43;;;;;;;3.47;2.70;;;;;;;18.97;100.00;97113.50;4125243;28;20642;-78
2023/07/25 07:39:47;;;;;;;5.47;3.80;;;;;;;19.00;100.00;97106.06;4105410;28;20657;-78
2023/07/25 07:41:50;;;;;;;4.30;2.53;;;;;;;19.03;100.00;97097.78;4099064;28;20744;-78
2023/07/25 07:43:54;;;;;;;3.87;2.73;;;;;;;19.11;100.00;97102.16;4138008;28;20733;-78
2023/07/25 07:45:58;;;;;;;5.30;2.97;;;;;;;19.24;100.00;97100.53;4118643;28;21477;-78
2023/07/25 07:48:01;;;;;;;4.67;2.50;;;;;;;19.34;100.00;97093.16;4105097;28;21110;-79
2023/07/25 07:50:04;;;;;;;5.47;3.00;;;;;;;19.41;100.00;97099.34;4101404;28;21210;-79
2023/07/25 07:52:09;;;;;;;5.33;2.80;;;;;;;19.41;100.00;97092.25;4106879;28;20664;-79
2023/07/25 07:54:28;;;;;;;4.37;2.63;;;;;;;19.46;100.00;97108.38;4131516;28;20668;-78
2023/07/25 07:56:31;;;;;;;4.63;2.57;;;;;;;19.48;100.00;97105.53;4110280;28;21109;-78
2023/07/25 07:58:35;;;;;;;3.43;2.60;;;;;;;19.54;100.00;97102.97;4121610;28;20672;-79
2023/07/25 08:00:40;;;;;;;4.83;2.70;;;;;;;19.56;100.00;97103.63;4116623;28;20801;-79
2023/07/25 08:02:45;;;;;;;3.83;2.80;;;;;;;19.62;100.00;97102.06;4121668;28;21014;-79
2023/07/25 08:04:48;;;;;;;3.40;2.27;;;;;;;19.72;100.00;97107.91;4107851;28;21233;-79
2023/07/25 08:06:51;;;;;;;3.23;2.63;;;;;;;19.87;100.00;97113.03;4120981;28;20677;-79
2023/07/25 08:08:54;;;;;;;3.63;2.53;;;;;;;20.03;100.00;97112.78;4130305;28;20656;-79
2023/07/25 08:10:57;;;;;;;3.43;2.70;;;;;;;20.11;100.00;97117.16;4108600;28;20651;-79
2023/07/25 08:13:00;;;;;;;4.07;2.73;;;;;;;20.11;100.00;97111.84;4106126;28;21079;-79
2023/07/25 08:15:04;;;;;;;3.00;2.37;;;;;;;20.13;100.00;97113.31;4119118;28;21109;-79
2023/07/25 08:17:09;;;;;;;3.23;2.37;;;;;;;20.22;100.00;97120.16;4105841;28;21238;-79
2023/07/25 08:19:12;;;;;;;3.50;2.60;;;;;;;20.51;100.00;97120.84;4106931;28;20671;-79
2023/07/25 08:21:15;;;;;;;3.90;2.60;;;;;;;20.69;98.06;97115.94;4108122;28;20663;-79
2023/07/25 08:23:20;;;;;;;3.40;2.43;;;;;;;20.80;98.59;97132.16;4106801;28;20664;-79
2023/07/25 08:25:23;;;;;;;3.97;2.67;;;;;;;20.88;99.40;97125.88;4121876;28;20699;-79
2023/07/25 08:27:26;;;;;;;4.47;2.57;;;;;;;20.97;100.00;97130.03;4125939;28;20654;-79
2023/07/25 08:29:30;;;;;;;4.33;3.10;;;;;;;21.17;100.00;97123.91;4106164;28;20688;-79
2023/07/25 08:31:33;;;;;;;3.03;2.23;;;;;;;21.28;98.40;97116.19;4117526;28;20711;-79
2023/07/25 08:33:37;;;;;;;2.40;1.80;;;;;;;21.41;97.31;97126.91;4119182;28;20663;-79
2023/07/25 08:35:40;;;;;;;3.60;2.40;;;;;;;21.80;98.07;97120.00;4131396;28;20762;-79
2023/07/25 08:37:45;;;;;;;2.70;1.70;;;;;;;22.18;94.82;97123.84;4120203;28;20731;-79
2023/07/25 08:39:49;;;;;;;3.40;2.40;;;;;;;22.46;95.91;97129.84;4108967;28;20654;-79
2023/07/25 08:41:54;;;;;;;5.90;4.43;;;;;;;22.73;93.79;97121.72;4111100;28;20673;-79
2023/07/25 08:44:00;;;;;;;3.80;2.53;;;;;;;22.99;93.47;97121.78;4122055;28;21501;-79
2023/07/25 08:46:07;;;;;;;3.33;2.30;;;;;;;23.25;92.20;97106.59;4110807;28;21372;-79
2023/07/25 08:48:12;;;;;;;3.08;2.00;;;;;;;23.11;87.49;97102.34;4117159;28;20782;-79
2023/07/25 08:50:17;;;;;;;4.37;2.17;;;;;;;22.81;88.22;97106.38;4121753;28;20232;-79
2023/07/25 08:52:21;;;;;;;3.00;2.27;;;;;;;22.53;87.20;97102.25;4120810;28;21067;-79
2023/07/25 08:54:29;;;;;;;3.20;1.60;;;;;;;22.34;88.71;97094.25;4107072;28;21080;-79
2023/07/25 08:56:35;;;;;;;2.70;1.90;;;;;;;22.17;89.70;97092.16;4102527;28;20662;-79
2023/07/25 08:58:41;;;;;;;2.50;1.93;;;;;;;22.13;89.84;97086.44;4105426;28;20662;-79
2023/07/25 09:00:45;;;;;;;2.90;2.00;;;;;;;22.17;89.99;97086.84;4120253;28;20648;-79
2023/07/25 09:02:49;;;;;;;2.43;1.83;;;;;;;22.35;90.82;97087.94;4122859;28;20705;-79
2023/07/25 09:04:56;;;;;;;2.70;1.70;;;;;;;22.46;88.65;97090.81;4111443;28;20642;-79
2023/07/25 09:07:01;;;;;;;3.00;2.20;;;;;;;22.54;88.98;97087.97;4123554;28;21404;-79
2023/07/25 09:09:04;;;;;;;2.33;1.77;;;;;;;22.61;88.73;97087.97;4124796;28;20659;-79
2023/07/25 09:11:10;;;;;;;3.50;2.30;;;;;;;22.79;90.96;97095.16;4120249;28;20657;-79
2023/07/25 09:13:13;;;;;;;2.50;1.80;;;;;;;23.03;88.36;97099.06;4119385;28;20645;-79
2023/07/25 09:15:16;;;;;;;5.50;2.50;;;;;;;23.05;89.25;97083.69;4109728;28;21117;-79
2023/07/25 09:17:20;;;;;;;4.03;1.80;;;;;;;23.13;89.19;97084.31;4116414;28;20666;-79
2023/07/25 09:19:23;;;;;;;2.90;1.87;;;;;;;23.51;87.54;97080.75;4116859;28;20732;-79
2023/07/25 09:21:27;;;;;;;2.83;2.00;;;;;;;23.72;88.73;97072.50;4106025;28;21518;-79
2023/07/25 09:23:31;;;;;;;3.37;2.27;;;;;;;23.94;85.32;97084.53;4108416;28;21229;-79
2023/07/25 09:25:35;;;;;;;4.00;2.23;;;;;;;24.13;86.22;97079.09;4109597;28;21208;-79
2023/07/25 09:27:38;;;;;;;3.53;2.33;;;;;;;24.10;83.69;97070.69;4124821;28;20739;-79
2023/07/25 09:29:41;;;;;;;2.90;2.13;;;;;;;24.26;83.97;97073.69;4111653;28;20665;-79
2023/07/25 09:31:46;;;;;;;2.77;1.90;;;;;;;24.47;83.98;97068.84;4108317;28;21240;-79
2023/07/25 09:33:53;;;;;;;2.80;2.00;;;;;;;24.53;81.92;97064.53;4138463;28;20644;-79
2023/07/25 09:35:59;;;;;;;4.03;1.93;;;;;;;24.32;82.49;97047.00;4104941;28;20637;-79